Time;durP1;ratioP1;P1;durP2;ratioP2;P2;SDS_P1;SDS_P2;PMS_P1;PMS_P2;Temp;Humidity;BMP_temperature;BMP_pressure;BME280_temperature;BME280_humidity;BME280_pressure;Samples;Min_cycle;Max_cycle;Signal;HPM_P1;HPM_P2
2023/06/02 00:00:45;;;;;;;;;10.00;8.25;;;;;;;;5053783;28;47292;-57
2023/06/02 00:03:11;;;;;;;;;6.75;6.75;;;;;;;;5053858;28;45259;-55
2023/06/02 00:05:38;;;;;;;;;10.25;9.50;;;;;;;;5053421;28;45717;-57
2023/06/02 00:08:04;;;;;;;;;13.20;11.40;;;;;;;;5055020;28;45414;-57
2023/06/02 00:10:29;;;;;;;;;11.00;10.40;;;;;;;;5055103;28;45389;-57
2023/06/02 00:12:54;;;;;;;;;13.25;11.00;;;;;;;;5054896;28;45458;-56
2023/06/02 00:15:20;;;;;;;;;10.25;8.50;;;;;;;;5022178;28;45257;-56
2023/06/02 00:17:45;;;;;;;;;12.00;10.00;;;;;;;;5055323;28;45301;-56
2023/06/02 00:20:10;;;;;;;;;10.00;8.25;;;;;;;;5054995;28;46561;-56
2023/06/02 00:22:39;;;;;;;;;11.00;7.75;;;;;;;;5054593;28;45352;-57
2023/06/02 00:25:05;;;;;;;;;8.00;7.80;;;;;;;;5055394;28;45283;-55
2023/06/02 00:27:30;;;;;;;;;9.50;9.50;;;;;;;;5054126;28;45584;-54
2023/06/02 00:29:56;;;;;;;;;9.25;9.25;;;;;;;;5054338;28;45707;-56
2023/06/02 00:32:21;;;;;;;;;10.75;9.50;;;;;;;;5054906;28;45341;-56
2023/06/02 00:34:46;;;;;;;;;11.75;11.75;;;;;;;;5055106;28;45687;-56
2023/06/02 00:37:12;;;;;;;;;9.25;7.50;;;;;;;;5055144;28;45411;-58
2023/06/02 00:39:37;;;;;;;;;11.25;10.75;;;;;;;;5054332;28;45288;-53
2023/06/02 00:42:02;;;;;;;;;13.50;11.50;;;;;;;;5054770;28;45418;-56
2023/06/02 00:44:31;;;;;;;;;11.50;10.50;;;;;;;;5053435;28;45556;-56
2023/06/02 00:46:56;;;;;;;;;11.60;10.60;;;;;;;;5054905;28;45416;-57
2023/06/02 00:49:21;;;;;;;;;11.00;11.00;;;;;;;;5055079;28;45974;-58
2023/06/02 00:51:47;;;;;;;;;16.50;12.75;;;;;;;;5054724;28;45475;-57
2023/06/02 00:54:13;;;;;;;;;12.50;12.50;;;;;;;;5053482;28;45423;-57
2023/06/02 00:56:40;;;;;;;;;19.60;16.20;;;;;;;;5053904;28;45160;-57
2023/06/02 00:59:06;;;;;;;;;15.60;11.80;;;;;;;;5054502;28;46760;-57
2023/06/02 01:01:31;;;;;;;;;14.25;13.00;;;;;;;;5055025;28;45275;-56
2023/06/02 01:03:57;;;;;;;;;15.25;13.00;;;;;;;;5054821;28;45287;-56
2023/06/02 01:06:24;;;;;;;;;16.50;15.25;;;;;;;;5036761;28;45497;-57
2023/06/02 01:08:50;;;;;;;;;15.00;14.60;;;;;;;;5054339;28;45478;-58
2023/06/02 01:11:15;;;;;;;;;14.80;14.00;;;;;;;;5054468;28;45534;-57
2023/06/02 01:13:41;;;;;;;;;16.00;14.50;;;;;;;;5070611;28;45471;-57
2023/06/02 01:16:06;;;;;;;;;14.50;12.75;;;;;;;;5040174;28;45966;-57
2023/06/02 01:18:35;;;;;;;;;15.00;15.00;;;;;;;;5044102;28;46002;-57
2023/06/02 01:21:01;;;;;;;;;14.80;13.20;;;;;;;;5054594;28;45293;-58
2023/06/02 01:23:33;;;;;;;;;15.50;15.25;;;;;;;;5054037;28;45269;-56
2023/06/02 01:25:59;;;;;;;;;19.00;17.20;;;;;;;;5070244;28;45233;-57
2023/06/02 01:28:25;;;;;;;;;17.75;16.25;;;;;;;;5052866;28;48355;-58
2023/06/02 01:30:52;;;;;;;;;16.00;16.00;;;;;;;;5054945;28;45456;-57
2023/06/02 01:33:21;;;;;;;;;20.20;19.00;;;;;;;;5058113;28;45292;-57
2023/06/02 01:35:47;;;;;;;;;21.20;18.60;;;;;;;;5073657;28;45423;-56
2023/06/02 01:38:13;;;;;;;;;20.20;17.40;;;;;;;;5057556;28;45695;-57
2023/06/02 01:40:38;;;;;;;;;18.00;15.75;;;;;;;;5073104;28;45503;-58
2023/06/02 01:43:03;;;;;;;;;18.75;18.00;;;;;;;;5058072;28;45219;-57
2023/06/02 01:45:30;;;;;;;;;19.00;17.50;;;;;;;;5073237;28;45603;-57
2023/06/02 01:48:04;;;;;;;;;18.40;16.80;;;;;;;;5057972;28;46091;-56
2023/06/02 01:50:29;;;;;;;;;20.20;18.80;;;;;;;;5057086;28;45289;-57
2023/06/02 01:52:54;;;;;;;;;21.25;19.75;;;;;;;;5058133;28;45742;-55
2023/06/02 01:55:20;;;;;;;;;24.25;20.00;;;;;;;;5057878;28;45535;-58
2023/06/02 01:57:45;;;;;;;;;17.50;16.50;;;;;;;;5057434;28;46230;-56
2023/06/02 02:00:10;;;;;;;;;22.75;20.50;;;;;;;;5057505;28;45284;-59
2023/06/02 02:02:36;;;;;;;;;19.25;18.75;;;;;;;;5057290;28;45201;-58
2023/06/02 02:05:02;;;;;;;;;20.75;18.50;;;;;;;;5057919;28;45321;-58
2023/06/02 02:07:28;;;;;;;;;18.40;18.00;;;;;;;;5057210;28;45810;-59
2023/06/02 02:09:54;;;;;;;;;19.20;17.20;;;;;;;;5057175;28;45301;-58
2023/06/02 02:12:19;;;;;;;;;24.25;19.50;;;;;;;;5057694;28;45899;-58
2023/06/02 02:14:47;;;;;;;;;21.25;19.50;;;;;;;;5050610;28;45411;-57
2023/06/02 02:17:12;;;;;;;;;23.40;20.20;;;;;;;;5038997;28;45441;-56
2023/06/02 02:19:37;;;;;;;;;20.00;18.50;;;;;;;;5057297;28;45336;-59
2023/06/02 02:22:03;;;;;;;;;19.50;18.50;;;;;;;;5057779;28;45281;-58
2023/06/02 02:24:28;;;;;;;;;19.25;19.25;;;;;;;;5057500;28;45246;-57
2023/06/02 02:26:53;;;;;;;;;21.75;18.50;;;;;;;;5057043;28;45947;-59
2023/06/02 02:29:18;;;;;;;;;19.00;19.00;;;;;;;;5057356;28;45404;-58
2023/06/02 02:31:44;;;;;;;;;22.50;20.25;;;;;;;;5057461;28;45231;-58
2023/06/02 02:34:10;;;;;;;;;19.75;19.75;;;;;;;;5056088;28;45369;-59
2023/06/02 02:36:35;;;;;;;;;9.00;9.00;;;;;;;;5056700;28;45706;-58
2023/06/02 02:39:00;;;;;;;;;23.75;21.00;;;;;;;;5057076;28;45237;-57
2023/06/02 02:41:26;;;;;;;;;22.75;22.00;;;;;;;;5038505;28;45356;-58
2023/06/02 02:43:52;;;;;;;;;20.25;20.25;;;;;;;;5057133;28;45479;-59
2023/06/02 02:46:17;;;;;;;;;17.75;17.00;;;;;;;;5057210;28;46073;-58
2023/06/02 02:48:42;;;;;;;;;18.25;18.00;;;;;;;;5056602;28;45179;-58
2023/06/02 02:51:07;;;;;;;;;22.25;19.25;;;;;;;;5056864;28;45383;-57
2023/06/02 02:53:33;;;;;;;;;19.50;19.50;;;;;;;;5056940;28;45373;-58
2023/06/02 02:55:58;;;;;;;;;16.25;16.25;;;;;;;;5056702;28;46249;-58
2023/06/02 02:58:24;;;;;;;;;23.00;21.25;;;;;;;;5056933;28;45442;-57
2023/06/02 03:00:49;;;;;;;;;22.25;20.00;;;;;;;;5056617;28;45414;-57
2023/06/02 03:03:15;;;;;;;;;19.50;18.50;;;;;;;;5055178;28;45504;-57
2023/06/02 03:05:41;;;;;;;;;24.00;18.50;;;;;;;;5056137;28;47327;-58
2023/06/02 03:08:09;;;;;;;;;21.60;19.20;;;;;;;;5055877;28;45361;-58
2023/06/02 03:10:35;;;;;;;;;18.60;16.60;;;;;;;;5056351;28;45354;-57
2023/06/02 03:13:00;;;;;;;;;24.50;20.75;;;;;;;;5056707;28;45555;-58
2023/06/02 03:15:27;;;;;;;;;25.75;23.75;;;;;;;;5055799;28;45270;-56
2023/06/02 03:17:52;;;;;;;;;21.40;19.20;;;;;;;;5056453;28;45341;-57
2023/06/02 03:20:17;;;;;;;;;22.50;21.50;;;;;;;;5056498;28;45245;-57
2023/06/02 03:22:43;;;;;;;;;18.00;17.25;;;;;;;;5072309;28;45735;-59
2023/06/02 03:25:08;;;;;;;;;27.50;20.50;;;;;;;;5071482;28;45494;-58
2023/06/02 03:27:34;;;;;;;;;23.25;22.75;;;;;;;;5054961;28;46001;-59
2023/06/02 03:29:59;;;;;;;;;20.50;18.75;;;;;;;;5056312;28;45349;-58
2023/06/02 03:32:24;;;;;;;;;22.25;19.75;;;;;;;;5056387;28;45430;-58
2023/06/02 03:34:50;;;;;;;;;23.50;20.50;;;;;;;;5054671;28;48579;-59
2023/06/02 03:37:15;;;;;;;;;20.75;19.00;;;;;;;;5055907;28;45360;-57
2023/06/02 03:39:40;;;;;;;;;25.50;23.50;;;;;;;;5056245;28;45398;-58
2023/06/02 03:42:06;;;;;;;;;21.75;21.25;;;;;;;;5055467;28;45318;-57
2023/06/02 03:44:31;;;;;;;;;24.00;21.00;;;;;;;;5056245;28;46508;-56
2023/06/02 03:46:56;;;;;;;;;22.00;21.25;;;;;;;;5056088;28;45447;-56
2023/06/02 03:49:26;;;;;;;;;18.25;18.25;;;;;;;;5056106;28;45403;-56
2023/06/02 03:51:52;;;;;;;;;22.20;21.40;;;;;;;;5054360;28;45479;-53
2023/06/02 03:54:17;;;;;;;;;26.00;22.50;;;;;;;;5054691;28;47263;-56
2023/06/02 03:56:42;;;;;;;;;24.50;23.00;;;;;;;;5055960;28;45310;-56
2023/06/02 03:59:08;;;;;;;;;21.50;20.50;;;;;;;;5055389;28;45279;-57
2023/06/02 04:01:35;;;;;;;;;25.50;22.00;;;;;;;;5055909;28;45595;-57
2023/06/02 04:04:00;;;;;;;;;23.80;21.60;;;;;;;;5055068;28;45693;-58
2023/06/02 04:06:25;;;;;;;;;25.75;21.25;;;;;;;;5055166;28;45450;-57
2023/06/02 04:08:51;;;;;;;;;25.75;22.00;;;;;;;;5054130;28;45275;-57
2023/06/02 04:11:16;;;;;;;;;25.25;21.25;;;;;;;;5055496;28;45483;-57
2023/06/02 04:13:41;;;;;;;;;24.25;22.00;;;;;;;;5055534;28;46109;-56
2023/06/02 04:16:07;;;;;;;;;25.00;23.25;;;;;;;;5055010;28;45458;-56
2023/06/02 04:18:35;;;;;;;;;24.25;21.00;;;;;;;;5055429;28;45290;-56
2023/06/02 04:21:00;;;;;;;;;27.80;21.80;;;;;;;;5055441;28;45308;-56
2023/06/02 04:23:26;;;;;;;;;26.75;23.75;;;;;;;;5055116;28;46256;-58
2023/06/02 04:25:51;;;;;;;;;26.00;25.25;;;;;;;;5026643;28;45643;-56
2023/06/02 04:28:18;;;;;;;;;28.50;25.00;;;;;;;;5049717;28;45422;-53
2023/06/02 04:30:43;;;;;;;;;23.60;21.80;;;;;;;;5043178;28;45852;-58
2023/06/02 04:33:08;;;;;;;;;23.00;19.00;;;;;;;;5053931;28;45800;-55
2023/06/02 04:35:34;;;;;;;;;26.50;20.50;;;;;;;;5055542;28;45540;-58
2023/06/02 04:38:00;;;;;;;;;24.00;22.60;;;;;;;;5055367;28;45444;-57
2023/06/02 04:40:25;;;;;;;;;26.50;25.50;;;;;;;;5052678;28;45395;-56
2023/06/02 04:42:50;;;;;;;;;29.75;25.75;;;;;;;;5034347;28;46407;-57
2023/06/02 04:45:16;;;;;;;;;27.00;25.25;;;;;;;;5033117;28;45533;-58
2023/06/02 04:47:41;;;;;;;;;27.50;25.25;;;;;;;;5034838;28;45352;-56
2023/06/02 04:50:08;;;;;;;;;31.00;27.00;;;;;;;;5016681;28;45536;-58
2023/06/02 04:52:34;;;;;;;;;29.20;25.60;;;;;;;;5049521;28;46300;-57
2023/06/02 04:55:00;;;;;;;;;23.80;20.40;;;;;;;;5034613;28;45604;-57
2023/06/02 04:57:25;;;;;;;;;29.50;24.25;;;;;;;;5034635;28;45345;-58
2023/06/02 04:59:51;;;;;;;;;19.50;19.25;;;;;;;;5034541;28;45317;-57
2023/06/02 05:02:16;;;;;;;;;28.50;25.75;;;;;;;;5034441;28;45250;-59
2023/06/02 05:04:42;;;;;;;;;27.75;25.00;;;;;;;;5034047;28;45356;-58
2023/06/02 05:07:08;;;;;;;;;27.20;23.40;;;;;;;;5034055;28;45241;-57
2023/06/02 05:09:33;;;;;;;;;28.25;26.50;;;;;;;;5048309;28;45209;-56
2023/06/02 05:11:59;;;;;;;;;29.50;25.50;;;;;;;;5054090;28;46479;-58
2023/06/02 05:14:24;;;;;;;;;27.75;25.00;;;;;;;;5053958;28;45694;-56
2023/06/02 05:16:50;;;;;;;;;26.25;23.00;;;;;;;;5054329;28;45464;-58
2023/06/02 05:19:15;;;;;;;;;29.00;25.00;;;;;;;;5054919;28;45566;-58
2023/06/02 05:21:40;;;;;;;;;28.00;27.25;;;;;;;;5054205;28;45619;-57
2023/06/02 05:24:06;;;;;;;;;28.25;26.50;;;;;;;;5054139;28;45328;-57
2023/06/02 05:26:31;;;;;;;;;24.75;22.25;;;;;;;;5022779;28;45400;-59
2023/06/02 05:28:57;;;;;;;;;29.50;27.25;;;;;;;;5031883;28;45407;-57
2023/06/02 05:31:22;;;;;;;;;29.40;24.40;;;;;;;;5032850;28;46897;-57
2023/06/02 05:33:48;;;;;;;;;27.00;23.50;;;;;;;;5032867;28;45409;-59
2023/06/02 05:36:13;;;;;;;;;30.50;25.25;;;;;;;;5034337;28;45305;-59
2023/06/02 05:38:42;;;;;;;;;27.75;24.75;;;;;;;;5033110;28;45596;-58
2023/06/02 05:41:08;;;;;;;;;28.40;24.40;;;;;;;;5033659;28;46120;-56
2023/06/02 05:43:33;;;;;;;;;26.50;25.25;;;;;;;;5034315;28;45288;-59
2023/06/02 05:45:58;;;;;;;;;29.25;26.75;;;;;;;;5034417;28;45435;-59
2023/06/02 05:48:24;;;;;;;;;26.00;21.00;;;;;;;;5034523;28;45354;-59
2023/06/02 05:50:49;;;;;;;;;29.25;26.50;;;;;;;;5049276;28;47560;-59
2023/06/02 05:53:14;;;;;;;;;25.00;24.00;;;;;;;;5033865;28;45429;-59
2023/06/02 05:55:40;;;;;;;;;26.00;24.50;;;;;;;;5034502;28;45490;-57
2023/06/02 05:58:05;;;;;;;;;30.75;28.75;;;;;;;;5034307;28;45282;-59
2023/06/02 06:00:30;;;;;;;;;28.25;25.75;;;;;;;;5032760;28;47181;-59
2023/06/02 06:02:56;;;;;;;;;31.50;28.75;;;;;;;;5034076;28;45366;-58
2023/06/02 06:05:21;;;;;;;;;29.00;26.50;;;;;;;;5033821;28;45434;-54
2023/06/02 06:07:47;;;;;;;;;31.00;29.00;;;;;;;;5032825;28;45278;-58
2023/06/02 06:10:12;;;;;;;;;28.00;27.50;;;;;;;;5049773;28;45381;-59
2023/06/02 06:12:37;;;;;;;;;33.50;29.50;;;;;;;;5069687;28;45538;-60
2023/06/02 06:15:03;;;;;;;;;31.25;28.50;;;;;;;;5053488;28;45391;-58
2023/06/02 06:17:28;;;;;;;;;32.25;31.50;;;;;;;;5055318;28;45433;-55
2023/06/02 06:19:53;;;;;;;;;31.25;29.50;;;;;;;;5057171;28;45393;-58
2023/06/02 06:22:18;;;;;;;;;29.00;28.25;;;;;;;;5057077;28;45345;-56
2023/06/02 06:24:44;;;;;;;;;36.25;28.50;;;;;;;;5055800;28;45272;-57
2023/06/02 06:27:09;;;;;;;;;30.00;27.00;;;;;;;;5057235;28;45416;-56
2023/06/02 06:29:34;;;;;;;;;37.00;31.00;;;;;;;;5056914;28;45697;-57
2023/06/02 06:32:00;;;;;;;;;29.75;29.25;;;;;;;;5056840;28;45291;-57
2023/06/02 06:34:25;;;;;;;;;31.50;29.50;;;;;;;;5055578;28;45751;-57
2023/06/02 06:36:51;;;;;;;;;29.75;27.75;;;;;;;;5057485;28;45660;-56
2023/06/02 06:39:16;;;;;;;;;32.80;29.80;;;;;;;;5055423;28;47639;-56
2023/06/02 06:41:42;;;;;;;;;32.75;31.00;;;;;;;;5056731;28;45376;-58
2023/06/02 06:44:07;;;;;;;;;30.25;29.25;;;;;;;;5057010;28;45155;-58
2023/06/02 06:46:33;;;;;;;;;26.50;26.00;;;;;;;;5055939;28;45203;-58
2023/06/02 06:48:58;;;;;;;;;37.75;31.75;;;;;;;;5040554;28;46255;-59
2023/06/02 06:51:23;;;;;;;;;35.75;31.50;;;;;;;;5053254;28;45366;-58
2023/06/02 06:53:49;;;;;;;;;23.00;21.25;;;;;;;;5056444;28;45383;-57
2023/06/02 06:56:14;;;;;;;;;36.00;31.50;;;;;;;;5056865;28;45401;-57
2023/06/02 06:58:39;;;;;;;;;31.75;27.50;;;;;;;;5056905;28;45486;-56
2023/06/02 07:01:05;;;;;;;;;30.75;28.50;;;;;;;;5056404;28;45344;-57
2023/06/02 07:03:30;;;;;;;;;32.25;28.00;;;;;;;;5057077;28;45360;-58
2023/06/02 07:05:55;;;;;;;;;32.75;28.75;;;;;;;;5057306;28;45333;-56
2023/06/02 07:08:20;;;;;;;;;26.00;20.50;;;;;;;;5056353;28;45339;-59
2023/06/02 07:10:46;;;;;;;;;35.00;32.00;;;;;;;;5056133;28;45273;-58
2023/06/02 07:13:11;;;;;;;;;31.50;29.50;;;;;;;;5056793;28;45361;-60
2023/06/02 07:15:37;;;;;;;;;29.50;28.00;;;;;;;;5056849;28;45317;-61
2023/06/02 07:18:02;;;;;;;;;28.00;27.50;;;;;;;;5038048;28;45767;-61
2023/06/02 07:20:27;;;;;;;;;34.25;29.25;;;;;;;;5036080;28;45296;-61
2023/06/02 07:22:52;;;;;;;;;28.75;27.75;;;;;;;;5035138;28;45439;-62
2023/06/02 07:25:18;;;;;;;;;28.25;26.75;;;;;;;;5036476;28;45377;-61
2023/06/02 07:27:43;;;;;;;;;27.00;23.50;;;;;;;;5051193;28;47322;-60
2023/06/02 07:30:08;;;;;;;;;30.00;27.25;;;;;;;;5035008;28;45326;-61
2023/06/02 07:32:34;;;;;;;;;28.25;23.00;;;;;;;;5036023;28;45216;-60
2023/06/02 07:34:59;;;;;;;;;24.75;24.75;;;;;;;;5035179;28;45351;-59
2023/06/02 07:37:25;;;;;;;;;28.75;23.50;;;;;;;;5035771;28;46470;-60
2023/06/02 07:39:50;;;;;;;;;26.00;21.75;;;;;;;;5035846;28;45268;-60
2023/06/02 07:42:15;;;;;;;;;25.50;24.25;;;;;;;;5051481;28;45382;-60
2023/06/02 07:44:41;;;;;;;;;30.50;26.75;;;;;;;;5036214;28;45323;-59
2023/06/02 07:47:10;;;;;;;;;21.00;19.00;;;;;;;;5034593;28;45783;-62
2023/06/02 07:49:35;;;;;;;;;25.40;23.60;;;;;;;;5035816;28;45373;-61
2023/06/02 07:52:00;;;;;;;;;20.75;20.75;;;;;;;;5034589;28;45394;-62
2023/06/02 07:54:27;;;;;;;;;19.80;17.60;;;;;;;;5035480;28;45447;-60
2023/06/02 07:56:52;;;;;;;;;24.00;21.50;;;;;;;;5035563;28;46066;-61
2023/06/02 07:59:18;;;;;;;;;25.25;24.00;;;;;;;;5034347;28;45400;-61
2023/06/02 08:01:44;;;;;;;;;24.50;21.25;;;;;;;;5035337;28;45483;-60
2023/06/02 08:04:10;;;;;;;;;24.60;21.40;;;;;;;;5051055;28;45568;-61
2023/06/02 08:06:35;;;;;;;;;13.50;12.25;;;;;;;;5035324;28;46085;-62
2023/06/02 08:09:00;;;;;;;;;22.25;19.00;;;;;;;;5037313;28;45370;-60
2023/06/02 08:11:26;;;;;;;;;18.00;18.00;;;;;;;;5055584;28;45330;-60
2023/06/02 08:13:51;;;;;;;;;16.50;15.50;;;;;;;;5055815;28;45350;-60
2023/06/02 08:16:16;;;;;;;;;20.00;18.25;;;;;;;;5054705;28;45338;-60
2023/06/02 08:18:41;;;;;;;;;18.50;17.50;;;;;;;;5033582;28;45503;-60
2023/06/02 08:21:07;;;;;;;;;19.50;18.50;;;;;;;;5027887;28;45408;-60
2023/06/02 08:23:32;;;;;;;;;18.75;17.25;;;;;;;;5046744;28;45536;-62
2023/06/02 08:25:58;;;;;;;;;19.25;18.50;;;;;;;;5061194;27;45994;-60
2023/06/02 08:28:25;;;;;;;;;18.60;17.00;;;;;;;;5045088;28;45483;-61
2023/06/02 08:30:51;;;;;;;;;16.00;13.60;;;;;;;;5033515;28;45431;-60
2023/06/02 08:33:17;;;;;;;;;20.00;18.20;;;;;;;;5034053;28;45456;-60
2023/06/02 08:35:42;;;;;;;;;13.60;13.40;;;;;;;;5038095;28;46663;-62
2023/06/02 08:38:07;;;;;;;;;18.50;17.50;;;;;;;;5069204;28;45339;-61
2023/06/02 08:40:37;;;;;;;;;14.00;13.25;;;;;;;;5028102;28;45388;-61
2023/06/02 08:43:13;;;;;;;;;20.00;16.40;;;;;;;;5027509;28;45635;-61
2023/06/02 08:45:42;;;;;;;;;22.00;19.80;;;;;;;;5028558;28;46888;-61
2023/06/02 08:48:07;;;;;;;;;17.40;16.00;;;;;;;;5038922;28;45751;-61
2023/06/02 08:50:33;;;;;;;;;18.75;16.00;;;;;;;;5051972;28;45420;-59
2023/06/02 08:53:01;;;;;;;;;23.75;18.75;;;;;;;;5068703;28;45496;-59
2023/06/02 08:55:27;;;;;;;;;17.40;16.40;;;;;;;;5051559;28;46194;-61
2023/06/02 08:57:52;;;;;;;;;22.50;19.25;;;;;;;;5051726;28;45446;-60
2023/06/02 09:00:18;;;;;;;;;22.50;21.25;;;;;;;;5051813;28;45384;-61
2023/06/02 09:02:46;;;;;;;;;18.00;16.50;;;;;;;;5068754;28;45682;-61
2023/06/02 09:05:13;;;;;;;;;22.60;20.60;;;;;;;;5052613;28;46772;-60
2023/06/02 09:07:39;;;;;;;;;18.80;18.00;;;;;;;;5051406;28;45789;-61
2023/06/02 09:10:04;;;;;;;;;18.50;17.50;;;;;;;;5052537;28;45341;-62
2023/06/02 09:12:30;;;;;;;;;26.25;22.75;;;;;;;;5051950;28;45555;-60
2023/06/02 09:15:08;;;;;;;;;22.75;21.00;;;;;;;;5050599;28;45751;-60
2023/06/02 09:17:33;;;;;;;;;25.00;22.20;;;;;;;;5051207;28;45347;-60
2023/06/02 09:20:01;;;;;;;;;25.25;22.50;;;;;;;;5043716;28;45610;-60
2023/06/02 09:22:26;;;;;;;;;24.20;23.20;;;;;;;;5053135;28;45371;-62
2023/06/02 09:24:53;;;;;;;;;28.50;24.25;;;;;;;;5049670;28;46441;-61
2023/06/02 09:27:18;;;;;;;;;29.40;27.40;;;;;;;;5052354;28;45404;-61
2023/06/02 09:29:44;;;;;;;;;25.75;24.50;;;;;;;;5052202;28;45472;-62
2023/06/02 09:32:13;;;;;;;;;22.75;22.50;;;;;;;;5052973;28;45295;-62
2023/06/02 09:34:38;;;;;;;;;24.80;23.80;;;;;;;;5050867;28;46958;-61
2023/06/02 09:37:11;;;;;;;;;27.25;25.75;;;;;;;;5051228;28;45325;-61
2023/06/02 09:39:42;;;;;;;;;25.60;22.40;;;;;;;;5051298;28;45933;-61
2023/06/02 09:42:07;;;;;;;;;29.60;28.00;;;;;;;;5047663;28;45523;-62
2023/06/02 09:44:32;;;;;;;;;33.00;26.25;;;;;;;;5050121;28;45752;-60
2023/06/02 09:46:59;;;;;;;;;24.50;23.25;;;;;;;;5067024;28;45379;-60
2023/06/02 09:49:24;;;;;;;;;23.00;21.20;;;;;;;;5066556;28;45360;-62
2023/06/02 09:51:50;;;;;;;;;21.50;20.25;;;;;;;;5051587;28;45314;-62
2023/06/02 09:54:15;;;;;;;;;22.00;20.25;;;;;;;;5055583;28;45598;-61
2023/06/02 09:56:40;;;;;;;;;23.75;20.50;;;;;;;;5055321;28;45467;-61
2023/06/02 09:59:06;;;;;;;;;21.50;20.00;;;;;;;;5056061;28;45309;-63
2023/06/02 10:01:35;;;;;;;;;22.25;22.25;;;;;;;;5053444;28;45456;-62
2023/06/02 10:04:01;;;;;;;;;20.20;19.60;;;;;;;;5055377;28;46205;-61
2023/06/02 10:06:32;;;;;;;;;15.25;15.00;;;;;;;;5056035;28;45515;-62
2023/06/02 10:08:57;;;;;;;;;22.20;21.40;;;;;;;;5055885;28;45281;-62
2023/06/02 10:11:25;;;;;;;;;21.75;21.75;;;;;;;;5050777;28;45674;-61
2023/06/02 10:14:01;;;;;;;;;19.80;16.80;;;;;;;;5064296;28;46179;-62
2023/06/02 10:16:26;;;;;;;;;19.80;17.60;;;;;;;;5055480;28;45475;-61
2023/06/02 10:19:09;;;;;;;;;26.25;23.25;;;;;;;;5046890;28;45402;-61
2023/06/02 10:21:57;;;;;;;;;23.60;21.20;;;;;;;;5054981;28;45449;-62
2023/06/02 10:24:34;;;;;;;;;25.80;25.80;;;;;;;;5069259;28;46518;-61
2023/06/02 10:26:59;;;;;;;;;24.00;23.40;;;;;;;;5054200;28;45357;-63
2023/06/02 10:29:25;;;;;;;;;29.50;23.00;;;;;;;;5039869;28;45673;-63
2023/06/02 10:31:51;;;;;;;;;26.00;24.40;;;;;;;;5052142;28;45620;-62
2023/06/02 10:34:34;;;;;;;;;26.50;22.50;;;;;;;;5055356;28;46280;-62
2023/06/02 10:37:00;;;;;;;;;20.40;20.20;;;;;;;;5052332;28;45407;-63
2023/06/02 10:39:35;;;;;;;;;27.00;24.00;;;;;;;;5051351;28;45370;-64
2023/06/02 10:42:09;;;;;;;;;25.60;24.40;;;;;;;;5053091;28;45311;-63
2023/06/02 10:44:35;;;;;;;;;25.40;22.80;;;;;;;;5053225;28;45388;-62
2023/06/02 10:47:18;;;;;;;;;25.00;24.50;;;;;;;;5053309;28;45471;-62
2023/06/02 10:49:57;;;;;;;;;23.80;22.20;;;;;;;;5052745;28;45781;-61
2023/06/02 10:52:23;;;;;;;;;25.80;25.20;;;;;;;;5053777;28;45342;-60
2023/06/02 10:55:06;;;;;;;;;27.75;25.50;;;;;;;;5051156;28;46187;-61
2023/06/02 10:57:58;;;;;;;;;32.20;29.60;;;;;;;;5054723;28;45662;-60
2023/06/02 11:00:35;;;;;;;;;31.00;26.80;;;;;;;;5043460;28;46029;-60
2023/06/02 11:03:00;;;;;;;;;26.60;25.20;;;;;;;;5048036;28;45506;-60
2023/06/02 11:05:26;;;;;;;;;30.00;25.25;;;;;;;;5053748;28;47497;-62
2023/06/02 11:08:13;;;;;;;;;26.50;25.25;;;;;;;;5048134;28;48252;-61
2023/06/02 11:10:42;;;;;;;;;26.80;26.20;;;;;;;;5053997;28;45301;-63
2023/06/02 11:13:08;;;;;;;;;24.20;24.20;;;;;;;;5053612;28;45733;-63
2023/06/02 11:15:33;;;;;;;;;28.75;24.50;;;;;;;;5056179;28;46014;-58
2023/06/02 11:18:00;;;;;;;;;27.50;24.50;;;;;;;;5071388;28;45271;-64
2023/06/02 11:20:35;;;;;;;;;24.60;21.20;;;;;;;;5056180;28;45289;-62
2023/06/02 11:23:03;;;;;;;;;23.00;22.60;;;;;;;;5071398;28;45646;-62
2023/06/02 11:25:29;;;;;;;;;26.00;22.00;;;;;;;;5056183;28;46199;-61
2023/06/02 11:27:54;;;;;;;;;19.25;19.25;;;;;;;;5056466;28;45448;-62
2023/06/02 11:30:23;;;;;;;;;24.50;23.25;;;;;;;;5035893;28;45369;-62
2023/06/02 11:32:49;;;;;;;;;33.20;29.60;;;;;;;;5035740;28;45486;-61
2023/06/02 11:35:16;;;;;;;;;25.75;24.75;;;;;;;;5048664;28;45735;-62
2023/06/02 11:37:41;;;;;;;;;25.80;25.80;;;;;;;;5051495;28;45427;-62
2023/06/02 11:40:09;;;;;;;;;28.75;24.75;;;;;;;;5054560;28;45339;-62
2023/06/02 11:42:38;;;;;;;;;28.80;27.20;;;;;;;;5052609;28;45443;-62
2023/06/02 11:45:04;;;;;;;;;26.60;24.40;;;;;;;;5039452;28;46269;-61
2023/06/02 11:47:29;;;;;;;;;22.60;22.60;;;;;;;;5053912;28;45812;-61
2023/06/02 11:49:55;;;;;;;;;23.25;22.00;;;;;;;;5053278;28;45482;-61
2023/06/02 11:52:20;;;;;;;;;21.25;21.25;;;;;;;;5052824;28;45542;-61
2023/06/02 11:54:52;;;;;;;;;26.00;24.50;;;;;;;;5043360;28;45939;-61
2023/06/02 11:57:29;;;;;;;;;26.00;21.80;;;;;;;;5049586;28;45524;-63
2023/06/02 12:00:09;;;;;;;;;25.00;23.40;;;;;;;;5034810;28;45353;-60
2023/06/02 12:02:35;;;;;;;;;23.40;21.20;;;;;;;;5034504;28;45589;-60
2023/06/02 12:05:00;;;;;;;;;27.00;23.50;;;;;;;;5033996;28;45483;-61
2023/06/02 12:07:28;;;;;;;;;23.75;23.75;;;;;;;;5035674;28;45468;-62
2023/06/02 12:09:54;;;;;;;;;23.20;23.20;;;;;;;;5053143;28;45886;-62
2023/06/02 12:12:19;;;;;;;;;29.50;26.75;;;;;;;;5054166;28;45450;-62
2023/06/02 12:14:44;;;;;;;;;21.50;19.25;;;;;;;;5052168;28;46390;-62
2023/06/02 12:17:10;;;;;;;;;26.50;21.50;;;;;;;;5052292;28;45298;-62
2023/06/02 12:19:35;;;;;;;;;20.00;18.50;;;;;;;;5005968;28;45424;-61
2023/06/02 12:22:10;;;;;;;;;25.00;22.50;;;;;;;;5044346;28;45317;-62
2023/06/02 12:24:38;;;;;;;;;29.00;26.00;;;;;;;;5069379;28;45883;-60
2023/06/02 12:27:07;;;;;;;;;24.40;22.60;;;;;;;;5054015;28;45362;-62
2023/06/02 12:29:33;;;;;;;;;29.00;25.40;;;;;;;;5054015;28;45368;-63
2023/06/02 12:31:59;;;;;;;;;23.60;20.40;;;;;;;;5045308;28;45759;-61
2023/06/02 12:34:24;;;;;;;;;23.00;18.50;;;;;;;;5068052;28;45465;-61
2023/06/02 12:36:51;;;;;;;;;14.25;14.00;;;;;;;;5041284;28;45501;-61
2023/06/02 12:39:16;;;;;;;;;21.80;16.60;;;;;;;;5052410;28;45443;-59
2023/06/02 12:41:41;;;;;;;;;18.75;17.75;;;;;;;;5052103;28;45324;-61
2023/06/02 12:44:07;;;;;;;;;20.50;16.75;;;;;;;;5050985;28;47520;-62
2023/06/02 12:46:32;;;;;;;;;18.50;17.50;;;;;;;;5041263;28;45333;-62
2023/06/02 12:48:58;;;;;;;;;18.50;17.00;;;;;;;;5049447;28;45455;-60
2023/06/02 12:51:23;;;;;;;;;14.25;13.75;;;;;;;;5041242;28;45340;-61
2023/06/02 12:53:49;;;;;;;;;18.25;16.75;;;;;;;;5031976;28;45968;-61
2023/06/02 12:56:14;;;;;;;;;17.75;17.25;;;;;;;;5044894;28;45342;-60
2023/06/02 12:58:40;;;;;;;;;11.75;11.25;;;;;;;;5050325;28;45505;-61
2023/06/02 13:01:05;;;;;;;;;16.00;14.00;;;;;;;;5052355;28;45677;-61
2023/06/02 13:03:31;;;;;;;;;16.00;14.75;;;;;;;;5052054;28;46433;-61
2023/06/02 13:05:57;;;;;;;;;18.50;15.00;;;;;;;;5052293;28;45837;-61
2023/06/02 13:08:22;;;;;;;;;13.20;11.40;;;;;;;;5052221;28;45409;-62
2023/06/02 13:10:48;;;;;;;;;17.50;15.75;;;;;;;;5051059;28;45454;-61
2023/06/02 13:13:13;;;;;;;;;15.75;14.75;;;;;;;;5050311;28;45776;-62
2023/06/02 13:15:38;;;;;;;;;15.25;14.50;;;;;;;;5051774;28;45500;-61
2023/06/02 13:18:04;;;;;;;;;14.75;13.00;;;;;;;;5052282;28;45698;-61
2023/06/02 13:20:29;;;;;;;;;18.00;16.75;;;;;;;;5036646;28;45645;-62
2023/06/02 13:22:54;;;;;;;;;22.75;16.75;;;;;;;;5030131;28;45933;-63
2023/06/02 13:25:20;;;;;;;;;21.25;19.75;;;;;;;;5044760;28;45916;-61
2023/06/02 13:27:45;;;;;;;;;16.75;13.75;;;;;;;;5049883;28;45707;-61
2023/06/02 13:30:11;;;;;;;;;16.75;16.75;;;;;;;;5052181;28;45432;-60
2023/06/02 13:32:36;;;;;;;;;17.25;15.75;;;;;;;;5025493;28;45957;-59
2023/06/02 13:35:01;;;;;;;;;13.25;13.00;;;;;;;;5045218;28;45373;-60
2023/06/02 13:37:27;;;;;;;;;17.00;17.00;;;;;;;;5052097;28;45455;-59
2023/06/02 13:39:52;;;;;;;;;19.25;16.75;;;;;;;;5051844;28;45421;-61
2023/06/02 13:42:17;;;;;;;;;18.50;16.75;;;;;;;;5051282;28;46142;-59
2023/06/02 13:44:43;;;;;;;;;16.25;15.00;;;;;;;;5051204;28;45415;-61
2023/06/02 13:47:08;;;;;;;;;13.75;13.75;;;;;;;;5044919;28;45310;-60
2023/06/02 13:49:33;;;;;;;;;19.25;15.75;;;;;;;;5031836;28;45300;-59
2023/06/02 13:51:59;;;;;;;;;14.25;14.25;;;;;;;;5037225;28;46688;-59
2023/06/02 13:54:24;;;;;;;;;14.25;14.25;;;;;;;;5051708;28;45388;-61
2023/06/02 13:56:49;;;;;;;;;16.75;13.50;;;;;;;;5051698;28;45479;-62
2023/06/02 13:59:16;;;;;;;;;18.25;15.00;;;;;;;;5050656;28;45563;-62
2023/06/02 14:01:41;;;;;;;;;14.60;13.60;;;;;;;;5050936;28;45896;-62
2023/06/02 14:04:08;;;;;;;;;12.00;12.00;;;;;;;;5044942;28;45416;-62
2023/06/02 14:06:35;;;;;;;;;14.40;14.40;;;;;;;;5046219;28;45777;-60
2023/06/02 14:09:04;;;;;;;;;11.40;11.40;;;;;;;;5035598;28;45408;-62
2023/06/02 14:11:29;;;;;;;;;15.20;11.20;;;;;;;;5058156;28;47617;-61
2023/06/02 14:13:55;;;;;;;;;13.75;12.25;;;;;;;;5051847;28;45767;-61